createdAt,value
2017-09-27T00:01:50.446Z,89.10
2017-09-27T00:04:18.776Z,89.00
2017-09-27T00:06:47.088Z,88.70
2017-09-27T00:09:15.789Z,88.80
2017-09-27T00:11:44.174Z,88.90
2017-09-27T00:14:12.523Z,88.80
2017-09-27T00:16:40.268Z,88.70
2017-09-27T00:19:09.229Z,88.60
2017-09-27T00:21:43.258Z,88.70
2017-09-27T00:24:18.443Z,88.60
2017-09-27T00:26:46.866Z,88.70
2017-09-27T00:29:15.387Z,88.60
2017-09-27T00:31:43.903Z,88.70
2017-09-27T00:34:12.344Z,88.30
2017-09-27T00:36:40.663Z,88.50
2017-09-27T00:39:08.983Z,88.60
2017-09-27T00:41:37.332Z,88.60
2017-09-27T00:44:05.655Z,88.60
2017-09-27T00:46:33.991Z,88.60
2017-09-27T00:49:02.323Z,88.60
2017-09-27T00:51:30.668Z,88.60
2017-09-27T00:53:58.992Z,88.50
2017-09-27T00:56:27.340Z,88.60
2017-09-27T00:58:55.667Z,88.40
2017-09-27T01:01:24.018Z,88.40
2017-09-27T01:03:52.379Z,88.30
2017-09-27T01:06:20.711Z,88.30
2017-09-27T01:08:49.039Z,88.20
2017-09-27T01:11:17.380Z,88.20
2017-09-27T01:13:45.716Z,88.20
2017-09-27T01:16:14.028Z,88.20
2017-09-27T01:18:42.388Z,88.20
2017-09-27T01:21:09.932Z,88.20
2017-09-27T01:23:38.281Z,88.20
2017-09-27T01:26:06.602Z,88.30
2017-09-27T01:28:34.944Z,88.40
2017-09-27T01:31:03.268Z,88.50
2017-09-27T01:33:30.847Z,88.50
2017-09-27T01:35:59.176Z,88.60
2017-09-27T01:38:27.547Z,88.60
2017-09-27T01:40:55.874Z,88.70
2017-09-27T01:43:24.187Z,88.60
2017-09-27T01:45:52.528Z,88.70
2017-09-27T01:48:20.852Z,88.70
2017-09-27T01:50:49.187Z,88.70
2017-09-27T01:53:17.500Z,88.60
2017-09-27T01:55:45.840Z,88.60
2017-09-27T01:58:14.158Z,88.60
2017-09-27T02:00:42.495Z,88.60
2017-09-27T02:03:10.807Z,88.50
2017-09-27T02:05:39.153Z,88.40
2017-09-27T02:08:07.477Z,88.40
2017-09-27T02:10:35.824Z,88.30
2017-09-27T02:13:04.143Z,88.30
2017-09-27T02:15:32.460Z,88.30
2017-09-27T02:18:00.806Z,88.30
2017-09-27T02:20:29.136Z,88.20
2017-09-27T02:22:57.465Z,88.30
2017-09-27T02:25:25.774Z,88.30
2017-09-27T02:27:54.165Z,88.30
2017-09-27T02:30:22.483Z,89.10
2017-09-27T02:32:50.859Z,88.30
2017-09-27T02:35:19.175Z,88.40
2017-09-27T02:37:47.512Z,88.30
2017-09-27T02:40:15.845Z,88.30
2017-09-27T02:42:44.178Z,88.40
2017-09-27T02:45:12.516Z,88.50
2017-09-27T02:47:40.851Z,88.60
2017-09-27T02:50:09.214Z,88.70
2017-09-27T02:52:37.563Z,88.70
2017-09-27T02:55:05.910Z,88.80
2017-09-27T02:57:34.242Z,88.80
2017-09-27T03:00:02.584Z,88.70
2017-09-27T03:02:30.974Z,88.60
2017-09-27T03:04:59.322Z,88.60
2017-09-27T03:07:27.657Z,88.60
2017-09-27T03:09:55.980Z,88.50
2017-09-27T03:12:24.331Z,88.60
2017-09-27T03:14:52.647Z,88.50
2017-09-27T03:17:20.992Z,88.50
2017-09-27T03:19:49.321Z,88.00
2017-09-27T03:22:17.668Z,88.60
2017-09-27T03:24:47.318Z,88.30
2017-09-27T03:27:15.689Z,88.30
2017-09-27T03:29:44.011Z,88.30
2017-09-27T03:32:12.351Z,88.40
2017-09-27T03:34:40.703Z,88.40
2017-09-27T03:37:09.271Z,88.40
2017-09-27T03:39:37.606Z,88.50
2017-09-27T03:42:05.996Z,88.40
2017-09-27T03:44:34.339Z,88.40
2017-09-27T03:47:02.666Z,88.30
2017-09-27T03:49:31.003Z,88.40
2017-09-27T03:51:59.487Z,88.40
2017-09-27T03:54:27.826Z,88.40
2017-09-27T03:56:56.142Z,88.40
2017-09-27T03:59:24.483Z,88.50
2017-09-27T04:01:52.812Z,88.50
2017-09-27T04:04:21.164Z,88.50
2017-09-27T04:06:49.525Z,88.70
2017-09-27T04:09:17.867Z,88.70
2017-09-27T04:11:46.196Z,88.80
2017-09-27T04:14:14.595Z,88.70
2017-09-27T04:16:42.940Z,88.60
2017-09-27T04:19:11.280Z,88.50
2017-09-27T04:21:39.626Z,88.30
2017-09-27T04:24:07.950Z,88.20
2017-09-27T04:26:37.287Z,88.30
2017-09-27T04:29:05.616Z,88.30
2017-09-27T04:31:33.966Z,88.30
2017-09-27T04:34:02.279Z,88.30
2017-09-27T04:36:30.695Z,88.30
2017-09-27T04:38:59.022Z,88.40
2017-09-27T04:41:27.364Z,88.40
2017-09-27T04:43:55.684Z,88.30
2017-09-27T04:46:24.010Z,88.30
2017-09-27T04:48:52.353Z,88.30
2017-09-27T04:51:20.670Z,88.30
2017-09-27T04:53:49.007Z,88.40
2017-09-27T04:56:17.331Z,88.30
2017-09-27T04:58:45.673Z,88.30
2017-09-27T05:01:13.995Z,88.30
2017-09-27T05:03:42.348Z,88.30
2017-09-27T05:06:10.676Z,88.30
2017-09-27T05:08:39.035Z,88.30
2017-09-27T05:11:07.371Z,88.30
2017-09-27T05:13:35.696Z,88.30
2017-09-27T05:16:04.040Z,88.40
2017-09-27T05:18:32.359Z,88.30
2017-09-27T05:21:00.695Z,89.20
2017-09-27T05:23:29.162Z,88.20
2017-09-27T05:25:57.720Z,88.30
2017-09-27T05:28:26.037Z,88.50
2017-09-27T05:30:54.404Z,88.70
2017-09-27T05:33:22.727Z,88.80
2017-09-27T05:35:51.067Z,88.70
2017-09-27T05:38:19.387Z,88.60
2017-09-27T05:40:47.736Z,88.50
2017-09-27T05:43:16.061Z,88.50
2017-09-27T05:45:44.429Z,88.40
2017-09-27T05:48:12.753Z,88.30
2017-09-27T05:50:41.080Z,88.30
2017-09-27T05:53:09.425Z,88.40
2017-09-27T05:55:37.789Z,88.20
2017-09-27T05:58:06.139Z,88.20
2017-09-27T06:00:34.459Z,88.10
2017-09-27T06:03:02.796Z,88.10
2017-09-27T06:05:31.115Z,88.10
2017-09-27T06:07:59.452Z,88.00
2017-09-27T06:10:27.832Z,87.90
2017-09-27T06:12:56.179Z,87.70
2017-09-27T06:15:24.503Z,87.60
2017-09-27T06:17:52.876Z,87.60
2017-09-27T06:20:21.200Z,87.40
2017-09-27T06:22:49.523Z,87.30
2017-09-27T06:25:17.959Z,87.20
2017-09-27T06:27:46.290Z,87.10
2017-09-27T06:30:14.805Z,86.80
2017-09-27T06:32:42.514Z,86.80
2017-09-27T06:35:10.891Z,86.60
2017-09-27T06:37:39.227Z,86.60
2017-09-27T06:40:07.571Z,86.50
2017-09-27T06:42:35.919Z,86.50
2017-09-27T06:45:04.285Z,86.30
2017-09-27T06:47:32.650Z,86.30
2017-09-27T06:50:00.967Z,86.20
2017-09-27T06:52:29.319Z,86.10
2017-09-27T06:54:57.639Z,86.10
2017-09-27T06:57:26.007Z,85.70
2017-09-27T06:59:54.375Z,85.30
2017-09-27T07:02:22.721Z,84.90
2017-09-27T07:04:51.056Z,84.40
2017-09-27T07:07:19.397Z,84.10
2017-09-27T07:09:47.715Z,83.80
2017-09-27T07:12:16.033Z,83.40
2017-09-27T07:14:44.372Z,81.60
2017-09-27T07:17:12.713Z,81.40
2017-09-27T07:19:41.067Z,81.20
2017-09-27T07:22:09.392Z,81.10
2017-09-27T07:24:37.769Z,81.00
2017-09-27T07:27:06.089Z,80.80
2017-09-27T07:29:34.436Z,80.60
2017-09-27T07:32:02.760Z,79.90
2017-09-27T07:34:31.101Z,79.20
2017-09-27T07:36:59.447Z,78.90
2017-09-27T07:39:27.777Z,78.90
2017-09-27T07:41:56.120Z,79.00
2017-09-27T07:44:24.446Z,79.00
2017-09-27T07:46:52.799Z,78.90
2017-09-27T07:49:21.135Z,78.60
2017-09-27T07:51:49.475Z,78.70
2017-09-27T07:54:17.787Z,78.80
2017-09-27T07:56:46.123Z,78.50
2017-09-27T07:59:14.439Z,78.50
2017-09-27T08:01:42.783Z,78.50
2017-09-27T08:04:11.107Z,78.50
2017-09-27T08:06:39.424Z,78.10
2017-09-27T08:09:07.773Z,78.00
2017-09-27T08:11:36.095Z,77.20
2017-09-27T08:14:04.438Z,77.10
2017-09-27T08:16:33.106Z,76.60
2017-09-27T08:19:01.468Z,75.90
2017-09-27T08:21:29.791Z,75.60
2017-09-27T08:23:58.171Z,75.60
2017-09-27T08:26:26.487Z,75.20
2017-09-27T08:28:54.843Z,74.70
2017-09-27T08:31:23.155Z,73.90
2017-09-27T08:33:51.479Z,73.80
2017-09-27T08:36:19.820Z,74.80
2017-09-27T08:38:48.148Z,73.10
2017-09-27T08:41:16.483Z,72.90
2017-09-27T08:43:44.800Z,72.40
2017-09-27T08:46:13.226Z,72.40
2017-09-27T08:48:41.580Z,72.70
2017-09-27T08:51:09.975Z,72.70
2017-09-27T08:53:38.292Z,73.30
2017-09-27T08:56:06.652Z,71.80
2017-09-27T08:58:34.974Z,71.20
2017-09-27T09:01:03.317Z,70.80
2017-09-27T09:03:31.632Z,70.30
2017-09-27T09:05:59.956Z,69.40
2017-09-27T09:08:28.300Z,68.50
2017-09-27T09:10:56.852Z,68.30
2017-09-27T09:13:25.195Z,68.30
2017-09-27T09:15:53.535Z,69.10
2017-09-27T09:18:22.000Z,70.40
2017-09-27T09:20:49.578Z,70.30
2017-09-27T09:23:17.984Z,69.40
2017-09-27T09:25:46.300Z,68.60
2017-09-27T09:28:14.641Z,69.20
2017-09-27T09:30:42.991Z,69.20
2017-09-27T09:33:11.349Z,64.40
2017-09-27T09:35:39.665Z,62.50
2017-09-27T09:38:07.988Z,63.30
2017-09-27T09:40:36.354Z,61.70
2017-09-27T09:43:04.658Z,59.20
2017-09-27T09:45:32.988Z,58.00
2017-09-27T09:48:01.304Z,57.00
2017-09-27T09:50:29.665Z,56.80
2017-09-27T09:52:57.979Z,56.40
2017-09-27T09:55:26.306Z,56.40
2017-09-27T09:57:54.667Z,56.00
2017-09-27T10:00:23.017Z,55.30
2017-09-27T10:02:51.353Z,54.00
2017-09-27T10:05:18.955Z,54.00
2017-09-27T10:07:47.271Z,49.70
2017-09-27T10:10:15.593Z,49.30
2017-09-27T10:12:43.929Z,48.80
2017-09-27T10:15:12.239Z,49.50
2017-09-27T10:17:40.581Z,48.80
2017-09-27T10:20:08.897Z,48.40
2017-09-27T10:22:37.239Z,47.90
2017-09-27T10:25:05.551Z,47.50
2017-09-27T10:27:33.893Z,47.70
2017-09-27T10:30:02.199Z,46.20
2017-09-27T10:32:30.555Z,46.80
2017-09-27T10:34:58.871Z,46.90
2017-09-27T10:37:27.180Z,46.80
2017-09-27T10:39:55.507Z,46.50
2017-09-27T10:42:23.824Z,46.70
2017-09-27T10:44:52.179Z,46.60
2017-09-27T10:47:20.505Z,45.60
2017-09-27T10:49:48.844Z,45.30
2017-09-27T10:52:17.160Z,44.30
2017-09-27T10:54:45.490Z,45.00
2017-09-27T10:57:13.809Z,43.90
2017-09-27T10:59:42.150Z,44.40
2017-09-27T11:02:10.468Z,44.30
2017-09-27T11:04:38.784Z,43.10
2017-09-27T11:07:07.128Z,42.80
2017-09-27T11:09:35.468Z,43.00
2017-09-27T11:12:03.799Z,42.60
2017-09-27T11:14:32.115Z,42.30
2017-09-27T11:17:00.883Z,42.10
2017-09-27T11:19:29.288Z,41.20
2017-09-27T11:21:57.617Z,41.60
2017-09-27T11:24:25.932Z,40.80
2017-09-27T11:26:54.355Z,39.60
2017-09-27T11:29:22.674Z,39.50
2017-09-27T11:31:50.988Z,40.60
2017-09-27T11:34:19.328Z,40.20
2017-09-27T11:36:47.643Z,39.70
2017-09-27T11:39:15.999Z,39.70
2017-09-27T11:41:44.315Z,39.50
2017-09-27T11:44:12.655Z,39.50
2017-09-27T11:46:41.176Z,39.70
2017-09-27T11:49:09.517Z,39.20
2017-09-27T11:51:37.838Z,38.70
2017-09-27T11:54:06.178Z,38.60
2017-09-27T11:56:34.492Z,39.00
2017-09-27T11:59:02.824Z,39.60
2017-09-27T12:01:31.160Z,39.60
2017-09-27T12:03:59.484Z,40.40
2017-09-27T12:06:29.347Z,41.20
2017-09-27T12:08:59.569Z,41.30
2017-09-27T12:11:29.809Z,41.20
2017-09-27T12:14:02.238Z,41.00
2017-09-27T12:16:34.171Z,41.00
2017-09-27T12:19:04.752Z,41.30
2017-09-27T12:21:34.647Z,40.50
2017-09-27T12:24:02.981Z,40.20
2017-09-27T12:26:31.337Z,40.90
2017-09-27T12:29:00.509Z,40.90
2017-09-27T12:31:29.472Z,41.50
2017-09-27T12:33:58.004Z,40.90
2017-09-27T12:36:26.319Z,40.90
2017-09-27T12:38:54.656Z,41.70
2017-09-27T12:41:22.980Z,41.50
2017-09-27T12:43:51.321Z,40.00
2017-09-27T12:46:19.632Z,38.20
2017-09-27T12:48:48.203Z,38.00
2017-09-27T12:51:16.536Z,38.50
2017-09-27T12:53:44.895Z,37.90
2017-09-27T12:56:13.708Z,37.30
2017-09-27T12:58:42.195Z,37.70
2017-09-27T13:01:10.527Z,37.50
2017-09-27T13:03:38.847Z,38.30
2017-09-27T13:06:07.263Z,39.30
2017-09-27T13:08:35.843Z,40.00
2017-09-27T13:11:04.382Z,39.20
2017-09-27T13:13:32.896Z,38.70
2017-09-27T13:16:01.244Z,39.40
2017-09-27T13:18:29.561Z,39.90
2017-09-27T13:20:57.931Z,39.40
2017-09-27T13:23:28.591Z,38.00
2017-09-27T13:25:58.118Z,38.20
2017-09-27T13:28:26.544Z,38.20
2017-09-27T13:30:55.062Z,38.20
2017-09-27T13:33:23.384Z,39.00
2017-09-27T13:35:51.739Z,39.60
2017-09-27T13:38:20.075Z,39.80
2017-09-27T13:40:48.414Z,39.50
2017-09-27T13:43:16.759Z,39.90
2017-09-27T13:45:45.113Z,40.30
2017-09-27T13:48:13.447Z,40.50
2017-09-27T13:50:41.768Z,40.50
2017-09-27T13:53:10.105Z,40.60
2017-09-27T13:55:38.429Z,41.30
2017-09-27T13:58:06.755Z,42.20
2017-09-27T14:00:34.301Z,42.10
2017-09-27T14:03:02.628Z,40.30
2017-09-27T14:05:30.938Z,38.60
2017-09-27T14:07:59.249Z,38.60
2017-09-27T14:10:27.734Z,38.20
2017-09-27T14:12:56.088Z,37.50
2017-09-27T14:15:24.516Z,37.60
2017-09-27T14:17:52.868Z,38.10
2017-09-27T14:20:21.236Z,38.50
2017-09-27T14:22:49.596Z,39.90
2017-09-27T14:25:17.964Z,40.40
2017-09-27T14:27:46.372Z,40.50
2017-09-27T14:30:14.905Z,40.90
2017-09-27T14:32:43.224Z,40.80
2017-09-27T14:35:11.581Z,41.10
2017-09-27T14:37:39.892Z,39.70
2017-09-27T14:40:08.244Z,39.10
2017-09-27T14:42:36.560Z,38.90
2017-09-27T14:45:04.869Z,39.10
2017-09-27T14:47:33.215Z,39.10
2017-09-27T14:50:01.527Z,39.30
2017-09-27T14:52:29.856Z,39.30
2017-09-27T14:54:57.408Z,39.30
2017-09-27T14:57:25.744Z,40.00
2017-09-27T15:02:39.976Z,39.30
2017-09-27T15:05:08.291Z,39.50
2017-09-27T15:07:36.657Z,38.80
2017-09-27T15:10:04.988Z,38.70
2017-09-27T15:12:33.332Z,38.80
2017-09-27T15:15:01.901Z,38.90
2017-09-27T15:17:30.275Z,38.90
2017-09-27T15:19:58.841Z,38.80
2017-09-27T15:22:27.181Z,39.50
2017-09-27T15:24:55.553Z,40.00
2017-09-27T15:27:23.872Z,39.30
2017-09-27T15:29:52.204Z,39.30
2017-09-27T15:32:20.523Z,39.40
2017-09-27T15:34:48.855Z,39.00
2017-09-27T15:37:17.166Z,39.20
2017-09-27T15:39:45.492Z,39.80
2017-09-27T15:42:13.804Z,40.60
2017-09-27T15:44:42.149Z,41.20
2017-09-27T15:47:10.479Z,42.20
2017-09-27T15:49:38.877Z,43.00
2017-09-27T15:52:07.215Z,43.90
2017-09-27T15:54:35.553Z,44.40
2017-09-27T15:57:03.889Z,45.30
2017-09-27T15:59:32.202Z,46.40
2017-09-27T16:02:00.531Z,47.50
2017-09-27T16:04:28.841Z,48.90
2017-09-27T16:06:56.423Z,48.90
2017-09-27T16:09:24.749Z,52.00
2017-09-27T16:11:53.101Z,52.70
2017-09-27T16:14:21.434Z,53.00
2017-09-27T16:16:49.746Z,53.70
2017-09-27T16:19:18.087Z,54.70
2017-09-27T16:21:46.402Z,55.80
2017-09-27T16:24:14.727Z,56.10
2017-09-27T16:26:43.044Z,56.30
2017-09-27T16:29:11.379Z,56.50
2017-09-27T16:31:39.693Z,57.10
2017-09-27T16:34:08.043Z,57.60
2017-09-27T16:36:36.429Z,58.00
2017-09-27T16:39:04.751Z,58.60
2017-09-27T16:41:32.318Z,58.50
2017-09-27T16:44:00.632Z,60.00
2017-09-27T16:46:28.974Z,60.80
2017-09-27T16:48:57.292Z,61.80
2017-09-27T16:51:25.631Z,62.60
2017-09-27T16:53:53.945Z,63.70
2017-09-27T16:56:22.296Z,64.60
2017-09-27T16:58:50.612Z,65.30
2017-09-27T17:01:18.924Z,65.80
2017-09-27T17:03:47.250Z,66.40
2017-09-27T17:06:15.569Z,66.80
2017-09-27T17:08:43.896Z,67.30
2017-09-27T17:11:12.206Z,68.00
2017-09-27T17:13:40.546Z,68.70
2017-09-27T17:16:08.876Z,69.40
2017-09-27T17:18:37.241Z,69.90
2017-09-27T17:21:05.564Z,70.50
2017-09-27T17:23:33.991Z,70.80
2017-09-27T17:26:02.339Z,71.20
2017-09-27T17:28:30.767Z,71.60
2017-09-27T17:30:59.203Z,71.80
2017-09-27T17:33:27.516Z,72.20
2017-09-27T17:35:55.844Z,72.60
2017-09-27T17:38:24.283Z,72.90
2017-09-27T17:40:52.652Z,73.10
2017-09-27T17:43:21.007Z,73.30
2017-09-27T17:45:49.344Z,73.50
2017-09-27T17:48:17.733Z,74.20
2017-09-27T17:50:45.388Z,74.10
2017-09-27T17:53:13.835Z,75.10
2017-09-27T17:55:42.181Z,75.30
2017-09-27T17:58:10.519Z,75.70
2017-09-27T18:00:38.836Z,75.90
2017-09-27T18:03:07.268Z,76.30
2017-09-27T18:05:53.572Z,76.60
2017-09-27T18:08:38.598Z,76.70
2017-09-27T18:11:15.711Z,76.70
2017-09-27T18:13:49.812Z,76.90
2017-09-27T18:16:23.791Z,76.90
2017-09-27T18:18:52.211Z,77.30
2017-09-27T18:21:20.524Z,77.40
2017-09-27T18:23:48.836Z,77.50
2017-09-27T18:26:17.188Z,77.60
2017-09-27T18:28:45.517Z,77.70
2017-09-27T18:31:13.855Z,78.10
2017-09-27T18:33:42.246Z,78.30
2017-09-27T18:36:10.589Z,78.40
2017-09-27T18:38:38.915Z,78.50
2017-09-27T18:41:07.288Z,78.60
2017-09-27T18:43:35.609Z,78.70
2017-09-27T18:46:03.963Z,78.80
2017-09-27T18:48:32.279Z,78.80
2017-09-27T18:51:00.600Z,79.70
2017-09-27T18:53:28.181Z,78.90
2017-09-27T18:55:56.517Z,79.30
2017-09-27T18:58:24.865Z,79.60
2017-09-27T19:00:53.190Z,79.90
2017-09-27T19:03:21.536Z,80.00
2017-09-27T19:05:49.847Z,80.00
2017-09-27T19:08:18.208Z,80.20
2017-09-27T19:10:46.517Z,80.30
2017-09-27T19:13:14.838Z,80.10
2017-09-27T19:15:43.180Z,80.20
2017-09-27T19:18:11.493Z,80.30
2017-09-27T19:20:39.832Z,80.40
2017-09-27T19:23:08.140Z,80.30
2017-09-27T19:25:36.508Z,80.40
2017-09-27T19:28:04.827Z,80.40
2017-09-27T19:30:33.137Z,80.50
2017-09-27T19:33:01.480Z,80.40
2017-09-27T19:35:29.802Z,80.50
2017-09-27T19:37:58.139Z,80.60
2017-09-27T19:40:26.458Z,80.80
2017-09-27T19:42:54.817Z,81.00
2017-09-27T19:45:23.130Z,81.00
2017-09-27T19:47:51.476Z,80.90
2017-09-27T19:50:19.832Z,80.80
2017-09-27T19:52:48.185Z,80.90
2017-09-27T19:55:16.509Z,81.00
2017-09-27T19:57:44.835Z,81.90
2017-09-27T20:00:13.174Z,81.10
2017-09-27T20:02:41.489Z,81.10
2017-09-27T20:05:09.918Z,81.00
2017-09-27T20:07:38.232Z,81.10
2017-09-27T20:10:05.847Z,81.10
2017-09-27T20:12:34.159Z,81.30
2017-09-27T20:15:02.504Z,81.30
2017-09-27T20:17:30.833Z,81.50
2017-09-27T20:19:59.191Z,81.60
2017-09-27T20:22:27.511Z,81.90
2017-09-27T20:24:55.895Z,82.00
2017-09-27T20:27:24.239Z,82.30
2017-09-27T20:29:52.555Z,82.10
2017-09-27T20:32:20.127Z,82.10
2017-09-27T20:34:48.496Z,81.90
2017-09-27T20:37:16.856Z,81.90
2017-09-27T20:39:45.239Z,81.90
2017-09-27T20:42:13.594Z,81.90
2017-09-27T20:44:41.187Z,81.90
2017-09-27T20:47:09.545Z,82.20
2017-09-27T20:49:45.371Z,82.70
2017-09-27T20:52:13.836Z,82.70
2017-09-27T20:54:42.152Z,82.50
2017-09-27T20:57:10.464Z,82.40
2017-09-27T20:59:38.795Z,82.50
2017-09-27T21:02:07.118Z,82.40
2017-09-27T21:04:35.469Z,82.40
2017-09-27T21:07:03.863Z,82.70
2017-09-27T21:09:32.200Z,83.10
2017-09-27T21:12:00.616Z,83.30
2017-09-27T21:14:28.207Z,83.30
2017-09-27T21:16:56.521Z,83.50
2017-09-27T21:19:24.859Z,83.40
2017-09-27T21:21:53.223Z,83.60
2017-09-27T21:24:21.564Z,83.80
2017-09-27T21:26:49.996Z,83.90
2017-09-27T21:29:18.308Z,83.90
2017-09-27T21:31:46.653Z,83.90
2017-09-27T21:34:14.968Z,84.00
2017-09-27T21:36:43.346Z,84.00
2017-09-27T21:39:11.759Z,84.10
2017-09-27T21:41:40.076Z,84.00
2017-09-27T21:44:08.437Z,84.10
2017-09-27T21:46:36.755Z,84.20
2017-09-27T21:49:05.092Z,84.30
2017-09-27T21:51:33.480Z,84.40
2017-09-27T21:54:02.033Z,84.70
2017-09-27T21:56:30.609Z,84.80
2017-09-27T21:58:59.199Z,85.00
2017-09-27T22:01:27.595Z,85.00
2017-09-27T22:03:55.985Z,85.00
2017-09-27T22:06:24.395Z,85.10
2017-09-27T22:08:52.972Z,85.20
2017-09-27T22:11:21.308Z,85.90
2017-09-27T22:13:49.664Z,85.40
2017-09-27T22:16:17.231Z,85.40
2017-09-27T22:18:45.606Z,85.60
2017-09-27T22:21:13.943Z,85.60
2017-09-27T22:23:42.253Z,85.80
2017-09-27T22:26:09.825Z,85.80
2017-09-27T22:28:38.198Z,85.90
2017-09-27T22:31:06.537Z,85.90
2017-09-27T22:33:34.855Z,85.90
2017-09-27T22:36:03.184Z,85.80
2017-09-27T22:38:31.527Z,85.80
2017-09-27T22:40:59.849Z,85.90
2017-09-27T22:43:28.285Z,85.90
2017-09-27T22:45:56.609Z,85.80
2017-09-27T22:48:24.946Z,85.90
2017-09-27T22:50:53.267Z,85.90
2017-09-27T22:53:21.619Z,86.00
2017-09-27T22:55:49.931Z,86.00
2017-09-27T22:58:18.369Z,86.00
2017-09-27T23:00:46.679Z,86.00
2017-09-27T23:03:14.995Z,86.20
2017-09-27T23:05:42.570Z,86.10
2017-09-27T23:08:10.916Z,86.10
2017-09-27T23:10:39.254Z,86.20
2017-09-27T23:13:07.572Z,86.10
2017-09-27T23:15:35.145Z,86.10
2017-09-27T23:18:03.456Z,85.90
2017-09-27T23:20:31.806Z,86.10
2017-09-27T23:23:00.124Z,86.10
2017-09-27T23:25:28.463Z,86.10
2017-09-27T23:27:56.792Z,86.10
2017-09-27T23:30:25.201Z,86.20
2017-09-27T23:32:52.772Z,86.10
2017-09-27T23:35:21.135Z,86.30
2017-09-27T23:37:49.484Z,86.30
2017-09-27T23:40:17.893Z,86.50
2017-09-27T23:42:46.234Z,86.40
2017-09-27T23:45:14.554Z,86.40
2017-09-27T23:47:42.893Z,86.40
2017-09-27T23:50:11.203Z,86.40
2017-09-27T23:52:39.545Z,86.50
2017-09-27T23:55:07.872Z,86.60
2017-09-27T23:57:36.227Z,86.70
